createdAt,value
2017-11-13T00:01:03.749Z,4
2017-11-13T00:02:12.576Z,3.98
2017-11-13T00:03:21.399Z,4.02
2017-11-13T00:04:30.223Z,4
2017-11-13T00:05:39.052Z,3.97
2017-11-13T00:06:47.977Z,3.96
2017-11-13T00:07:56.807Z,4
2017-11-13T00:09:05.627Z,4
2017-11-13T00:10:14.452Z,4
2017-11-13T00:11:23.277Z,3.98
2017-11-13T00:12:32.200Z,4.04
2017-11-13T00:13:41.027Z,4.02
2017-11-13T00:14:49.854Z,3.97
2017-11-13T00:15:58.681Z,3.98
2017-11-13T00:17:07.508Z,4
2017-11-13T00:18:16.434Z,4
2017-11-13T00:19:25.258Z,4.02
2017-11-13T00:20:34.083Z,4.02
2017-11-13T00:21:42.909Z,4.04
2017-11-13T00:22:51.737Z,4.06
2017-11-13T00:24:00.712Z,4.08
2017-11-13T00:25:09.537Z,4.09
2017-11-13T00:26:18.359Z,4.06
2017-11-13T00:27:27.186Z,4.11
2017-11-13T00:28:36.009Z,4.14
2017-11-13T00:29:44.936Z,4.11
2017-11-13T00:30:53.762Z,4.09
2017-11-13T00:32:02.932Z,4.09
2017-11-13T00:33:11.757Z,4.12
2017-11-13T00:34:20.581Z,4.16
2017-11-13T00:35:29.559Z,4.14
2017-11-13T00:36:38.385Z,4.14
2017-11-13T00:37:47.262Z,4.22
2017-11-13T00:38:56.089Z,4.23
2017-11-13T00:40:04.913Z,4.14
2017-11-13T00:41:13.843Z,4.15
2017-11-13T00:42:22.662Z,4.23
2017-11-13T00:43:31.485Z,4.36
2017-11-13T00:44:40.313Z,4.32
2017-11-13T00:45:49.487Z,4.33
2017-11-13T00:46:58.653Z,4.32
2017-11-13T00:48:07.824Z,4.34
2017-11-13T00:49:16.651Z,4.27
2017-11-13T00:50:25.477Z,4.37
2017-11-13T00:51:34.303Z,4.32
2017-11-13T00:52:43.281Z,4.36
2017-11-13T00:53:52.109Z,4.32
2017-11-13T00:55:01.279Z,4.27
2017-11-13T00:56:10.104Z,4.3
2017-11-13T00:57:18.928Z,4.24
2017-11-13T00:58:27.754Z,4.12
2017-11-13T00:59:36.580Z,4.12
2017-11-13T01:00:45.411Z,4.11
2017-11-13T01:01:54.234Z,4.14
2017-11-13T01:03:03.416Z,4.42
2017-11-13T01:04:12.491Z,4.24
2017-11-13T01:05:21.317Z,4.15
2017-11-13T01:06:30.142Z,4.18
2017-11-13T01:07:38.969Z,4.18
2017-11-13T01:08:47.793Z,4.11
2017-11-13T01:09:56.621Z,4.11
2017-11-13T01:11:05.447Z,4.11
2017-11-13T01:12:14.272Z,4.06
2017-11-13T01:13:23.096Z,4.05
2017-11-13T01:14:31.922Z,4.12
2017-11-13T01:15:40.896Z,4.11
2017-11-13T01:16:49.721Z,4.09
2017-11-13T01:17:58.545Z,3.97
2017-11-13T01:19:07.373Z,4.11
2017-11-13T01:20:16.194Z,4.09
2017-11-13T01:21:25.806Z,4.08
2017-11-13T01:22:34.633Z,4.11
2017-11-13T01:23:43.460Z,4.11
2017-11-13T01:24:52.285Z,4.15
2017-11-13T01:26:01.457Z,4.14
2017-11-13T01:27:10.435Z,4.22
2017-11-13T01:28:19.261Z,4.12
2017-11-13T01:29:28.087Z,4.14
2017-11-13T01:30:36.915Z,4.16
2017-11-13T01:31:45.740Z,4.06
2017-11-13T01:32:54.865Z,4.11
2017-11-13T01:34:03.690Z,4.09
2017-11-13T01:35:12.861Z,4.08
2017-11-13T01:36:21.687Z,4.02
2017-11-13T01:37:30.514Z,3.98
2017-11-13T01:38:39.781Z,4
2017-11-13T01:39:48.605Z,4.02
2017-11-13T01:40:57.775Z,4.05
2017-11-13T01:42:06.600Z,4.06
2017-11-13T01:43:15.427Z,4.08
2017-11-13T01:44:24.300Z,4.08
2017-11-13T01:45:33.839Z,4.08
2017-11-13T01:46:42.763Z,4
2017-11-13T01:47:51.588Z,3.97
2017-11-13T01:49:00.413Z,4
2017-11-13T01:50:09.251Z,4
2017-11-13T01:51:18.064Z,3.9
2017-11-13T01:52:26.890Z,3.91
2017-11-13T01:53:35.720Z,3.93
2017-11-13T01:54:44.543Z,4.04
2017-11-13T01:55:53.368Z,4.11
2017-11-13T01:57:02.193Z,4.12
2017-11-13T01:58:11.017Z,4.06
2017-11-13T01:59:19.845Z,4.06
2017-11-13T02:00:28.671Z,4.02
2017-11-13T02:01:37.497Z,4.02
2017-11-13T02:02:46.320Z,3.98
2017-11-13T02:03:55.146Z,4.11
2017-11-13T02:05:03.977Z,4.2
2017-11-13T02:06:12.795Z,4.09
2017-11-13T02:07:21.875Z,3.98
2017-11-13T02:08:30.696Z,3.97
2017-11-13T02:09:39.572Z,3.94
2017-11-13T02:10:48.399Z,4.06
2017-11-13T02:11:57.223Z,4
2017-11-13T02:13:06.149Z,4.22
2017-11-13T02:14:14.976Z,4.14
2017-11-13T02:15:24.163Z,4.2
2017-11-13T02:16:32.990Z,4.09
2017-11-13T02:17:41.819Z,4.11
2017-11-13T02:18:51.285Z,3.97
2017-11-13T02:20:00.109Z,3.97
2017-11-13T02:21:08.936Z,3.98
2017-11-13T02:22:17.764Z,3.88
2017-11-13T02:23:26.587Z,3.98
2017-11-13T02:24:35.564Z,3.88
2017-11-13T02:25:44.389Z,3.88
2017-11-13T02:26:53.216Z,3.96
2017-11-13T02:28:02.044Z,3.98
2017-11-13T02:29:10.878Z,3.98
2017-11-13T02:30:19.995Z,4.09
2017-11-13T02:31:28.822Z,4.04
2017-11-13T02:32:37.650Z,4
2017-11-13T02:33:46.822Z,4.06
2017-11-13T02:34:55.642Z,4.04
2017-11-13T02:36:04.574Z,4.04
2017-11-13T02:37:13.742Z,4.02
2017-11-13T02:38:22.565Z,4.02
2017-11-13T02:39:31.391Z,4.05
2017-11-13T02:40:40.570Z,4.08
2017-11-13T02:41:49.693Z,4.06
2017-11-13T02:42:58.518Z,4.02
2017-11-13T02:44:07.344Z,4.06
2017-11-13T02:45:16.179Z,4.05
2017-11-13T02:46:25.002Z,4.14
2017-11-13T02:47:34.284Z,4.15
2017-11-13T02:48:43.114Z,4.05
2017-11-13T02:49:51.938Z,4.14
2017-11-13T02:51:00.764Z,4.12
2017-11-13T02:52:09.591Z,4.02
2017-11-13T02:53:18.871Z,4.04
2017-11-13T02:54:27.687Z,4.02
2017-11-13T02:55:36.513Z,4.09
2017-11-13T02:56:45.340Z,4.04
2017-11-13T02:57:54.165Z,4.04
2017-11-13T02:59:03.293Z,4.02
2017-11-13T03:00:12.116Z,4.09
2017-11-13T03:01:20.941Z,4.12
2017-11-13T03:02:29.769Z,4.14
2017-11-13T03:03:38.594Z,4.05
2017-11-13T03:04:47.418Z,3.93
2017-11-13T03:05:56.245Z,4
2017-11-13T03:07:05.073Z,4.05
2017-11-13T03:08:13.899Z,3.96
2017-11-13T03:09:23.069Z,4.24
2017-11-13T03:10:32.195Z,4.11
2017-11-13T03:11:41.021Z,4.06
2017-11-13T03:12:49.846Z,4.15
2017-11-13T03:13:58.672Z,3.98
2017-11-13T03:15:07.495Z,4.04
2017-11-13T03:16:16.623Z,4.05
2017-11-13T03:17:25.445Z,4.04
2017-11-13T03:18:34.272Z,3.94
2017-11-13T03:19:43.097Z,3.94
2017-11-13T03:20:51.921Z,4.05
2017-11-13T03:22:00.847Z,4
2017-11-13T03:23:09.669Z,4.02
2017-11-13T03:24:18.844Z,3.96
2017-11-13T03:25:27.671Z,4
2017-11-13T03:26:36.541Z,4.14
2017-11-13T03:27:45.474Z,4.33
2017-11-13T03:28:54.299Z,4.11
2017-11-13T03:30:03.122Z,4.14
2017-11-13T03:31:11.950Z,4.02
2017-11-13T03:32:21.122Z,4.08
2017-11-13T03:33:30.048Z,3.96
2017-11-13T03:34:38.876Z,4.08
2017-11-13T03:35:47.700Z,3.9
2017-11-13T03:36:56.870Z,4.22
2017-11-13T03:38:05.695Z,4.12
2017-11-13T03:39:14.624Z,4.18
2017-11-13T03:40:23.447Z,4.22
2017-11-13T03:41:32.614Z,4.09
2017-11-13T03:42:41.440Z,4.12
2017-11-13T03:43:50.263Z,4.04
2017-11-13T03:44:59.141Z,3.96
2017-11-13T03:46:07.968Z,4.08
2017-11-13T03:47:16.789Z,4
2017-11-13T03:48:25.615Z,4.05
2017-11-13T03:49:34.793Z,4.09
2017-11-13T03:50:44.066Z,4.05
2017-11-13T03:51:52.892Z,4
2017-11-13T03:53:01.714Z,3.98
2017-11-13T03:54:10.541Z,4
2017-11-13T03:55:19.367Z,3.94
2017-11-13T03:56:28.495Z,3.97
2017-11-13T03:57:37.322Z,4.08
2017-11-13T03:58:46.147Z,3.97
2017-11-13T03:59:54.969Z,4.11
2017-11-13T04:01:03.795Z,4
2017-11-13T04:02:12.870Z,3.97
2017-11-13T04:03:21.693Z,3.97
2017-11-13T04:04:30.520Z,4.04
2017-11-13T04:05:39.345Z,3.98
2017-11-13T04:06:48.168Z,3.98
2017-11-13T04:07:57.396Z,3.88
2017-11-13T04:09:06.222Z,3.97
2017-11-13T04:10:15.049Z,3.97
2017-11-13T04:11:23.871Z,3.93
2017-11-13T04:12:32.695Z,3.86
2017-11-13T04:13:41.621Z,3.84
2017-11-13T04:14:50.446Z,3.83
2017-11-13T04:15:59.275Z,3.86
2017-11-13T04:17:08.864Z,3.86
2017-11-13T04:18:18.378Z,3.83
2017-11-13T04:19:27.407Z,3.97
2017-11-13T04:20:36.230Z,3.94
2017-11-13T04:21:45.057Z,3.88
2017-11-13T04:22:53.883Z,3.78
2017-11-13T04:24:02.710Z,3.83
2017-11-13T04:25:11.884Z,3.83
2017-11-13T04:26:20.707Z,3.79
2017-11-13T04:27:29.533Z,3.78
2017-11-13T04:28:38.706Z,3.78
2017-11-13T04:29:47.530Z,3.69
2017-11-13T04:30:56.511Z,3.79
2017-11-13T04:32:05.336Z,3.72
2017-11-13T04:33:14.163Z,3.7
2017-11-13T04:34:22.988Z,3.68
2017-11-13T04:35:31.813Z,3.68
2017-11-13T04:36:41.190Z,3.72
2017-11-13T04:37:50.017Z,3.54
2017-11-13T04:38:58.843Z,3.68
2017-11-13T04:40:07.673Z,3.54
2017-11-13T04:41:16.841Z,3.51
2017-11-13T04:42:25.714Z,3.58
2017-11-13T04:43:34.886Z,3.57
2017-11-13T04:44:43.708Z,3.54
2017-11-13T04:45:52.532Z,3.52
2017-11-13T04:47:01.357Z,3.52
2017-11-13T04:48:10.383Z,3.43
2017-11-13T04:49:19.208Z,3.51
2017-11-13T04:50:28.034Z,3.42
2017-11-13T04:51:36.858Z,3.42
2017-11-13T04:52:45.685Z,3.36
2017-11-13T04:53:54.661Z,3.36
2017-11-13T04:55:03.482Z,3.43
2017-11-13T04:56:12.308Z,3.39
2017-11-13T04:57:21.133Z,3.35
2017-11-13T04:58:29.960Z,3.43
2017-11-13T04:59:38.790Z,3.39
2017-11-13T05:00:47.629Z,3.39
2017-11-13T05:01:56.806Z,3.4
2017-11-13T05:03:05.632Z,3.36
2017-11-13T05:04:14.458Z,3.43
2017-11-13T05:05:23.582Z,3.36
2017-11-13T05:06:32.406Z,3.39
2017-11-13T05:07:41.236Z,3.35
2017-11-13T05:08:50.059Z,3.35
2017-11-13T05:09:58.898Z,3.36
2017-11-13T05:11:07.760Z,3.54
2017-11-13T05:12:16.585Z,3.45
2017-11-13T05:13:25.409Z,3.54
2017-11-13T05:14:34.236Z,3.52
2017-11-13T05:15:43.062Z,3.36
2017-11-13T05:16:51.893Z,3.36
2017-11-13T05:18:00.709Z,3.43
2017-11-13T05:19:09.542Z,3.52
2017-11-13T05:20:18.358Z,3.51
2017-11-13T05:21:27.184Z,3.48
2017-11-13T05:22:36.309Z,3.5
2017-11-13T05:23:45.135Z,3.51
2017-11-13T05:24:53.961Z,3.51
2017-11-13T05:26:02.787Z,3.54
2017-11-13T05:27:11.611Z,3.47
2017-11-13T05:28:20.835Z,3.47
2017-11-13T05:29:29.658Z,3.47
2017-11-13T05:30:38.485Z,3.39
2017-11-13T05:31:47.309Z,3.35
2017-11-13T05:32:56.135Z,3.39
2017-11-13T05:34:05.014Z,3.4
2017-11-13T05:35:14.188Z,3.35
2017-11-13T05:36:23.363Z,3.36
2017-11-13T05:37:32.191Z,3.4
2017-11-13T05:38:41.013Z,3.39
2017-11-13T05:39:49.888Z,3.36
2017-11-13T05:40:58.715Z,3.36
2017-11-13T05:42:07.541Z,3.39
2017-11-13T05:43:16.365Z,3.4
2017-11-13T05:44:25.189Z,3.33
2017-11-13T05:45:34.016Z,3.33
2017-11-13T05:46:42.841Z,3.39
2017-11-13T05:47:51.666Z,3.32
2017-11-13T05:49:00.491Z,3.42
2017-11-13T05:50:09.318Z,3.35
2017-11-13T05:51:18.493Z,3.4
2017-11-13T05:52:27.660Z,3.36
2017-11-13T05:53:36.487Z,3.32
2017-11-13T05:54:45.312Z,3.26
2017-11-13T05:55:54.139Z,3.32
2017-11-13T05:57:03.013Z,3.28
2017-11-13T05:58:11.840Z,3.24
2017-11-13T05:59:20.664Z,3.18
2017-11-13T06:00:29.490Z,3.29
2017-11-13T06:01:38.321Z,3.15
2017-11-13T06:02:47.446Z,3.21
2017-11-13T06:03:56.623Z,3.08
2017-11-13T06:05:05.796Z,3.14
2017-11-13T06:06:14.620Z,3.11
2017-11-13T06:07:23.445Z,3.03
2017-11-13T06:08:32.372Z,3.13
2017-11-13T06:09:41.199Z,3.03
2017-11-13T06:10:50.027Z,2.93
2017-11-13T06:11:58.850Z,3.03
2017-11-13T06:13:08.020Z,2.97
2017-11-13T06:14:16.996Z,2.93
2017-11-13T06:15:25.822Z,2.96
2017-11-13T06:16:34.645Z,3.05
2017-11-13T06:17:43.473Z,2.92
2017-11-13T06:18:52.298Z,2.93
2017-11-13T06:20:01.469Z,2.89
2017-11-13T06:21:10.736Z,2.95
2017-11-13T06:22:19.902Z,2.95
2017-11-13T06:23:28.953Z,3.02
2017-11-13T06:24:38.421Z,2.92
2017-11-13T06:25:47.418Z,2.93
2017-11-13T06:26:56.450Z,2.89
2017-11-13T06:28:05.629Z,2.92
2017-11-13T06:29:14.461Z,2.84
2017-11-13T06:30:23.288Z,2.89
2017-11-13T06:31:32.113Z,2.78
2017-11-13T06:32:40.941Z,2.79
2017-11-13T06:33:49.766Z,2.79
2017-11-13T06:34:58.592Z,2.77
2017-11-13T06:36:07.417Z,2.79
2017-11-13T06:37:16.244Z,2.78
2017-11-13T06:38:25.065Z,2.77
2017-11-13T06:39:33.891Z,2.75
2017-11-13T06:40:42.725Z,2.74
2017-11-13T06:41:51.547Z,2.81
2017-11-13T06:43:00.720Z,2.77
2017-11-13T06:44:09.546Z,2.78
2017-11-13T06:45:18.371Z,2.79
2017-11-13T06:46:27.205Z,2.74
2017-11-13T06:47:36.028Z,2.77
2017-11-13T06:48:44.854Z,2.77
2017-11-13T06:49:53.683Z,2.75
2017-11-13T06:51:02.556Z,2.74
2017-11-13T06:52:11.381Z,2.75
2017-11-13T06:53:20.207Z,2.74
2017-11-13T06:54:29.377Z,2.74
2017-11-13T06:55:38.202Z,2.77
2017-11-13T06:56:47.127Z,2.82
2017-11-13T06:57:55.954Z,2.75
2017-11-13T06:59:04.777Z,2.77
2017-11-13T07:00:13.606Z,2.78
2017-11-13T07:01:22.783Z,2.74
2017-11-13T07:02:31.755Z,2.78
2017-11-13T07:03:40.584Z,2.74
2017-11-13T07:04:49.410Z,2.78
2017-11-13T07:05:58.237Z,2.75
2017-11-13T07:07:07.066Z,2.78
2017-11-13T07:08:15.936Z,2.72
2017-11-13T07:09:24.765Z,2.77
2017-11-13T07:10:33.591Z,2.75
2017-11-13T07:11:42.418Z,2.71
2017-11-13T07:12:51.244Z,2.74
2017-11-13T07:14:00.171Z,2.75
2017-11-13T07:15:08.999Z,2.77
2017-11-13T07:16:17.833Z,2.63
2017-11-13T07:17:27.004Z,2.69
2017-11-13T07:18:35.832Z,2.72
2017-11-13T07:19:45.000Z,2.72
2017-11-13T07:20:53.827Z,2.74
2017-11-13T07:22:02.652Z,2.72
2017-11-13T07:23:11.483Z,2.75
2017-11-13T07:24:20.302Z,2.72
2017-11-13T07:25:29.228Z,2.72
2017-11-13T07:26:38.053Z,2.78
2017-11-13T07:27:46.881Z,2.92
2017-11-13T07:28:55.706Z,2.75
2017-11-13T07:30:04.561Z,2.75
2017-11-13T07:31:13.458Z,2.78
2017-11-13T07:32:22.285Z,2.79
2017-11-13T07:33:31.111Z,2.74
2017-11-13T07:34:39.937Z,2.74
2017-11-13T07:35:48.760Z,2.89
2017-11-13T07:36:57.734Z,3.02
2017-11-13T07:38:06.562Z,2.96
2017-11-13T07:39:15.430Z,2.96
2017-11-13T07:40:24.269Z,3
2017-11-13T07:41:33.087Z,2.96
2017-11-13T07:42:41.913Z,3
2017-11-13T07:43:50.745Z,3.05
2017-11-13T07:44:59.918Z,2.97
2017-11-13T07:46:08.749Z,3.05
2017-11-13T07:47:17.582Z,3.08
2017-11-13T07:48:26.483Z,3.06
2017-11-13T07:49:35.348Z,3.1
2017-11-13T07:50:44.176Z,3.14
2017-11-13T07:51:53.005Z,3.17
2017-11-13T07:53:01.840Z,3.06
2017-11-13T07:54:11.290Z,3.11
2017-11-13T07:55:20.139Z,3.24
2017-11-13T07:56:28.983Z,3.17
2017-11-13T07:57:37.813Z,3.23
2017-11-13T07:58:47.008Z,3.18
2017-11-13T07:59:55.885Z,3.26
2017-11-13T08:01:05.161Z,3.29
2017-11-13T08:02:14.184Z,3.31
2017-11-13T08:03:23.064Z,3.26
2017-11-13T08:04:32.239Z,3.32
2017-11-13T08:05:41.170Z,3.26
2017-11-13T08:06:50.001Z,3.32
2017-11-13T08:07:58.832Z,3.31
2017-11-13T08:09:07.668Z,3.29
2017-11-13T08:10:16.572Z,3.39
2017-11-13T08:11:25.531Z,3.43
2017-11-13T08:12:34.368Z,3.47
2017-11-13T08:13:43.623Z,3.5
2017-11-13T08:14:52.459Z,3.5
2017-11-13T08:16:01.327Z,3.55
2017-11-13T08:17:10.467Z,3.58
2017-11-13T08:18:19.918Z,3.55
2017-11-13T08:19:28.844Z,3.6
2017-11-13T08:20:37.683Z,3.52
2017-11-13T08:21:46.524Z,3.65
2017-11-13T08:22:55.723Z,3.69
2017-11-13T08:24:04.689Z,3.7
2017-11-13T08:25:13.884Z,3.66
2017-11-13T08:26:22.773Z,3.66
2017-11-13T08:27:31.706Z,3.61
2017-11-13T08:28:40.738Z,3.8
2017-11-13T08:29:49.569Z,3.7
2017-11-13T08:30:58.545Z,3.7
2017-11-13T08:32:07.615Z,3.79
2017-11-13T08:33:16.552Z,3.79
2017-11-13T08:34:25.962Z,3.8
2017-11-13T08:35:35.059Z,3.84
2017-11-13T08:36:43.984Z,3.87
2017-11-13T08:37:52.995Z,3.91
2017-11-13T08:39:02.007Z,3.84
2017-11-13T08:40:10.964Z,4.06
2017-11-13T08:41:20.067Z,4.09
2017-11-13T08:42:29.134Z,4.05
2017-11-13T08:43:37.980Z,4.09
2017-11-13T08:44:46.834Z,4.15
2017-11-13T08:45:55.970Z,4.22
2017-11-13T08:47:05.847Z,4.16
2017-11-13T08:48:15.476Z,4.27
2017-11-13T08:49:25.462Z,4.26
2017-11-13T08:50:34.508Z,4.34
2017-11-13T08:51:43.748Z,4.33
2017-11-13T08:52:52.837Z,4.45
2017-11-13T08:54:01.919Z,4.3
2017-11-13T08:55:10.873Z,4.44
2017-11-13T08:56:20.010Z,4.44
2017-11-13T08:57:29.072Z,4.58
2017-11-13T08:58:38.258Z,4.55
2017-11-13T08:59:47.297Z,4.59
2017-11-13T09:00:56.626Z,4.52
2017-11-13T09:02:06.139Z,4.65
2017-11-13T09:03:15.462Z,4.91
2017-11-13T09:04:25.172Z,4.75
2017-11-13T09:05:34.152Z,4.94
2017-11-13T09:06:43.053Z,4.84
2017-11-13T09:07:52.212Z,4.78
2017-11-13T09:09:01.934Z,4.8
2017-11-13T09:10:11.085Z,4.73
2017-11-13T09:11:20.371Z,4.8
2017-11-13T09:12:29.254Z,4.86
2017-11-13T09:13:38.814Z,4.8
2017-11-13T09:14:47.684Z,4.91
2017-11-13T09:15:56.523Z,4.89
2017-11-13T09:17:05.345Z,5
2017-11-13T09:18:14.328Z,5.02
2017-11-13T09:19:23.775Z,4.91
2017-11-13T09:20:33.129Z,4.97
2017-11-13T09:21:42.078Z,5.02
2017-11-13T09:22:50.912Z,5.02
2017-11-13T09:23:59.748Z,5.09
2017-11-13T09:25:08.625Z,5.02
2017-11-13T09:26:18.034Z,4.99
2017-11-13T09:27:26.903Z,5.13
2017-11-13T09:28:35.731Z,5.21
2017-11-13T09:29:44.584Z,5.28
2017-11-13T09:30:53.572Z,5.24
2017-11-13T09:32:02.723Z,5.3
2017-11-13T09:33:12.166Z,5.21
2017-11-13T09:34:21.437Z,5.21
2017-11-13T09:35:30.287Z,5.33
2017-11-13T09:36:39.122Z,5.21
2017-11-13T09:37:47.960Z,5.42
2017-11-13T09:38:56.811Z,5.43
2017-11-13T09:40:05.992Z,5.58
2017-11-13T09:41:15.298Z,5.64
2017-11-13T09:42:24.244Z,5.64
2017-11-13T09:43:33.225Z,5.63
2017-11-13T09:44:42.077Z,5.68
2017-11-13T09:45:50.922Z,5.61
2017-11-13T09:46:59.798Z,5.64
2017-11-13T09:48:09.065Z,5.61
2017-11-13T09:49:18.979Z,5.63
2017-11-13T09:50:28.176Z,5.64
2017-11-13T09:51:37.052Z,5.71
2017-11-13T09:52:45.902Z,5.74
2017-11-13T09:53:54.737Z,5.89
2017-11-13T09:55:03.951Z,5.78
2017-11-13T09:56:12.926Z,5.85
2017-11-13T09:57:22.422Z,5.79
2017-11-13T09:58:31.471Z,5.86
2017-11-13T09:59:40.303Z,5.81
2017-11-13T10:00:49.334Z,5.93
2017-11-13T10:01:58.283Z,6.08
2017-11-13T10:03:07.546Z,6.22
2017-11-13T10:04:16.692Z,6.3
2017-11-13T10:05:25.537Z,6.14
2017-11-13T10:06:34.646Z,6.14
2017-11-13T10:07:43.618Z,6.21
2017-11-13T10:08:52.822Z,6.41
2017-11-13T10:10:02.063Z,6.28
2017-11-13T10:11:10.923Z,6.3
2017-11-13T10:12:19.866Z,6.33
2017-11-13T10:13:29.058Z,6.37
2017-11-13T10:14:37.960Z,6.41
2017-11-13T10:15:47.040Z,6.34
2017-11-13T10:16:56.050Z,6.36
2017-11-13T10:18:04.967Z,6.41
2017-11-13T10:19:14.410Z,6.52
2017-11-13T10:20:23.542Z,6.56
2017-11-13T10:21:32.779Z,6.71
2017-11-13T10:22:41.680Z,6.61
2017-11-13T10:23:50.876Z,6.87
2017-11-13T10:25:00.023Z,6.76
2017-11-13T10:26:09.583Z,6.73
2017-11-13T10:27:18.834Z,6.77
2017-11-13T10:28:27.728Z,6.77
2017-11-13T10:29:37.094Z,6.87
2017-11-13T10:30:45.984Z,6.84
2017-11-13T10:31:54.826Z,6.88
2017-11-13T10:33:03.778Z,6.85
2017-11-13T10:34:12.777Z,6.79
2017-11-13T10:35:22.206Z,6.85
2017-11-13T10:36:31.544Z,6.89
2017-11-13T10:37:40.522Z,6.91
2017-11-13T10:38:50.305Z,6.97
2017-11-13T10:39:59.772Z,6.92
2017-11-13T10:41:09.193Z,6.92
2017-11-13T10:42:18.463Z,6.98
2017-11-13T10:43:27.522Z,7.02
2017-11-13T10:44:36.528Z,7.06
2017-11-13T10:45:45.441Z,7.05
2017-11-13T10:46:54.784Z,6.98
2017-11-13T10:48:03.626Z,7.25
2017-11-13T10:49:12.510Z,7.2
2017-11-13T10:50:21.561Z,7.23
2017-11-13T10:51:30.778Z,7.27
2017-11-13T10:52:39.858Z,7.28
2017-11-13T10:53:48.725Z,7.32
2017-11-13T10:54:57.563Z,7.42
2017-11-13T10:56:06.407Z,7.42
2017-11-13T10:57:15.945Z,7.5
2017-11-13T10:58:26.059Z,7.43
2017-11-13T10:59:35.288Z,7.43
2017-11-13T11:00:44.154Z,7.46
2017-11-13T11:01:53.095Z,7.55
2017-11-13T11:03:01.934Z,7.57
2017-11-13T11:04:10.948Z,7.49
2017-11-13T11:05:19.997Z,7.57
2017-11-13T11:06:28.849Z,7.5
2017-11-13T11:07:37.701Z,7.57
2017-11-13T11:08:46.532Z,7.58
2017-11-13T11:09:55.671Z,7.61
2017-11-13T11:11:04.510Z,7.58
2017-11-13T11:12:13.348Z,7.69
2017-11-13T11:13:22.191Z,7.74
2017-11-13T11:14:31.040Z,7.75
2017-11-13T11:15:40.123Z,7.64
2017-11-13T11:16:48.961Z,7.82
2017-11-13T11:17:57.802Z,7.85
2017-11-13T11:19:07.032Z,7.82
2017-11-13T11:20:16.139Z,7.89
2017-11-13T11:21:25.152Z,7.89
2017-11-13T11:22:33.990Z,7.86
2017-11-13T11:23:42.831Z,7.82
2017-11-13T11:24:51.656Z,7.97
2017-11-13T11:26:00.863Z,8.08
2017-11-13T11:27:09.783Z,7.98
2017-11-13T11:28:19.032Z,7.97
2017-11-13T11:29:27.888Z,8.02
2017-11-13T11:30:36.713Z,8.01
2017-11-13T11:31:45.635Z,8.1
2017-11-13T11:32:54.818Z,8.1
2017-11-13T11:34:03.724Z,8.15
2017-11-13T11:35:12.759Z,8.15
2017-11-13T11:36:21.754Z,8.15
2017-11-13T11:37:30.580Z,8.26
2017-11-13T11:38:39.517Z,8.28
2017-11-13T11:39:48.609Z,8.26
2017-11-13T11:40:57.450Z,8.33
2017-11-13T11:42:06.633Z,8.3
2017-11-13T11:43:15.614Z,8.58
2017-11-13T11:44:24.839Z,8.44
2017-11-13T11:45:34.384Z,8.52
2017-11-13T11:46:43.337Z,8.48
2017-11-13T11:47:52.293Z,8.47
2017-11-13T11:49:01.185Z,8.47
2017-11-13T11:50:10.380Z,8.48
2017-11-13T11:51:19.406Z,8.58
2017-11-13T11:52:28.265Z,8.62
2017-11-13T11:53:37.115Z,8.65
2017-11-13T11:54:45.950Z,8.59
2017-11-13T11:55:55.337Z,8.77
2017-11-13T11:57:04.187Z,8.79
2017-11-13T11:58:13.027Z,8.8
2017-11-13T11:59:21.873Z,8.77
2017-11-13T12:00:30.733Z,8.87
2017-11-13T12:01:40.218Z,8.98
2017-11-13T12:02:49.894Z,8.79
2017-11-13T12:03:58.957Z,8.84
2017-11-13T12:05:07.992Z,8.87
2017-11-13T12:06:17.069Z,8.96
2017-11-13T12:07:26.423Z,8.91
2017-11-13T12:08:35.270Z,9.18
2017-11-13T12:09:44.461Z,9.05
2017-11-13T12:10:53.296Z,9.11
2017-11-13T12:12:02.143Z,9.05
2017-11-13T12:13:11.026Z,9.14
2017-11-13T12:14:19.867Z,9.04
2017-11-13T12:15:28.712Z,9.1
2017-11-13T12:16:37.551Z,9.26
2017-11-13T12:17:46.954Z,9.23
2017-11-13T12:18:55.889Z,9.14
2017-11-13T12:20:04.746Z,9.28
2017-11-13T12:21:13.592Z,9.2
2017-11-13T12:22:22.427Z,9.38
2017-11-13T12:23:31.258Z,9.24
2017-11-13T12:24:40.242Z,9.15
2017-11-13T12:25:49.125Z,9.23
2017-11-13T12:26:57.985Z,9.21
2017-11-13T12:28:06.821Z,9.32
2017-11-13T12:29:15.735Z,9.33
2017-11-13T12:30:24.672Z,9.38
2017-11-13T12:31:33.853Z,9.42
2017-11-13T12:32:42.695Z,9.39
2017-11-13T12:33:51.880Z,9.4
2017-11-13T12:35:00.727Z,9.38
2017-11-13T12:36:10.542Z,9.5
2017-11-13T12:37:19.376Z,9.48
2017-11-13T12:38:28.209Z,9.56
2017-11-13T12:39:37.052Z,9.54
2017-11-13T12:40:45.881Z,9.51
2017-11-13T12:41:54.816Z,9.58
2017-11-13T12:43:03.994Z,9.58
2017-11-13T12:44:12.845Z,9.61
2017-11-13T12:45:21.675Z,9.68
2017-11-13T12:46:30.508Z,9.76
2017-11-13T12:47:39.806Z,9.79
2017-11-13T12:48:48.631Z,9.87
2017-11-13T12:49:57.466Z,9.81
2017-11-13T12:51:06.300Z,9.79
2017-11-13T12:52:15.297Z,9.91
2017-11-13T12:53:24.180Z,10.02
2017-11-13T12:54:33.035Z,9.93
2017-11-13T12:55:41.877Z,9.93
2017-11-13T12:56:50.702Z,9.94
2017-11-13T12:57:59.544Z,10.04
2017-11-13T12:59:08.731Z,10.11
2017-11-13T13:00:17.921Z,10.2
2017-11-13T13:01:27.119Z,10.11
2017-11-13T13:02:35.942Z,10.2
2017-11-13T13:03:44.778Z,10.34
2017-11-13T13:04:53.662Z,10.25
2017-11-13T13:06:02.496Z,10.34
2017-11-13T13:07:11.688Z,10.23
2017-11-13T13:08:20.520Z,10.2
2017-11-13T13:09:29.406Z,10.22
2017-11-13T13:10:38.261Z,10.32
2017-11-13T13:11:47.102Z,10.36
2017-11-13T13:12:55.943Z,10.3
2017-11-13T13:14:04.793Z,10.3
2017-11-13T13:15:13.639Z,10.32
2017-11-13T13:16:22.668Z,10.36
2017-11-13T13:17:31.505Z,10.45
2017-11-13T13:18:40.339Z,10.45
2017-11-13T13:19:49.187Z,10.45
2017-11-13T13:20:58.051Z,10.44
2017-11-13T13:22:07.378Z,10.42
2017-11-13T13:23:16.616Z,10.42
2017-11-13T13:24:25.462Z,10.4
2017-11-13T13:25:34.298Z,10.36
2017-11-13T13:26:43.144Z,10.41
2017-11-13T13:27:52.030Z,10.3
2017-11-13T13:29:00.874Z,10.25
2017-11-13T13:30:09.746Z,10.23
2017-11-13T13:31:18.792Z,10.22
2017-11-13T13:32:27.995Z,10.32
2017-11-13T13:33:36.879Z,10.25
2017-11-13T13:34:45.730Z,10.36
2017-11-13T13:35:54.576Z,10.38
2017-11-13T13:37:03.419Z,10.41
2017-11-13T13:38:12.325Z,10.3
2017-11-13T13:39:21.281Z,10.36
2017-11-13T13:40:30.484Z,10.4
2017-11-13T13:41:39.835Z,10.4
2017-11-13T13:42:48.690Z,10.4
2017-11-13T13:43:57.533Z,10.45
2017-11-13T13:45:06.418Z,10.47
2017-11-13T13:46:15.349Z,10.52
2017-11-13T13:47:24.391Z,10.52
2017-11-13T13:48:33.277Z,10.52
2017-11-13T13:49:42.187Z,10.56
2017-11-13T13:50:51.223Z,10.63
2017-11-13T13:52:00.064Z,10.74
2017-11-13T13:53:08.934Z,10.81
2017-11-13T13:54:18.037Z,10.82
2017-11-13T13:55:27.059Z,10.79
2017-11-13T13:56:35.993Z,10.91
2017-11-13T13:57:44.879Z,10.96
2017-11-13T13:58:53.730Z,11.1
2017-11-13T14:00:02.637Z,11.18
2017-11-13T14:01:11.552Z,11.25
2017-11-13T14:02:20.784Z,11.37
2017-11-13T14:03:29.724Z,11.46
2017-11-13T14:04:38.571Z,11.28
2017-11-13T14:05:47.833Z,11.37
2017-11-13T14:06:56.673Z,11.51
2017-11-13T14:08:05.536Z,11.54
2017-11-13T14:09:15.095Z,11.46
2017-11-13T14:10:24.371Z,11.51
2017-11-13T14:11:33.302Z,11.51
2017-11-13T14:12:42.177Z,11.55
2017-11-13T14:13:51.159Z,11.55
2017-11-13T14:15:00.346Z,11.44
2017-11-13T14:16:09.186Z,11.42
2017-11-13T14:17:18.034Z,11.42
2017-11-13T14:18:26.869Z,11.27
2017-11-13T14:19:35.709Z,11.27
2017-11-13T14:20:44.544Z,11.25
2017-11-13T14:21:53.385Z,11.1
2017-11-13T14:23:02.251Z,11.22
2017-11-13T14:24:11.092Z,11.22
2017-11-13T14:25:20.299Z,11.29
2017-11-13T14:26:29.162Z,11.24
2017-11-13T14:27:38.082Z,11.06
2017-11-13T14:28:47.128Z,11.19
2017-11-13T14:29:56.099Z,11.03
2017-11-13T14:31:05.592Z,11.15
2017-11-13T14:32:14.609Z,11.04
2017-11-13T14:33:23.794Z,11.04
2017-11-13T14:34:32.661Z,10.96
2017-11-13T14:35:41.507Z,10.99
2017-11-13T14:36:50.513Z,10.99
2017-11-13T14:37:59.360Z,10.84
2017-11-13T14:39:08.199Z,10.81
2017-11-13T14:40:17.230Z,10.82
2017-11-13T14:41:26.143Z,10.78
2017-11-13T14:42:35.185Z,10.74
2017-11-13T14:43:44.094Z,10.61
2017-11-13T14:44:52.976Z,10.56
2017-11-13T14:46:01.900Z,10.47
2017-11-13T14:47:10.820Z,10.48
2017-11-13T14:48:19.742Z,10.42
2017-11-13T14:49:28.589Z,10.33
2017-11-13T14:50:37.466Z,10.4
2017-11-13T14:51:46.334Z,10.27
2017-11-13T14:52:55.222Z,10.22
2017-11-13T14:54:04.566Z,10.25
2017-11-13T14:55:13.543Z,10.25
2017-11-13T14:56:22.383Z,10.15
2017-11-13T14:57:31.568Z,10.14
2017-11-13T14:58:41.443Z,10.11
2017-11-13T14:59:50.493Z,9.94
2017-11-13T15:00:59.365Z,9.89
2017-11-13T15:02:08.275Z,9.79
2017-11-13T15:03:17.329Z,9.84
2017-11-13T15:04:26.173Z,9.78
2017-11-13T15:05:35.022Z,9.76
2017-11-13T15:06:43.880Z,9.76
2017-11-13T15:07:52.716Z,9.75
2017-11-13T15:09:01.613Z,9.9
2017-11-13T15:10:10.456Z,9.89
2017-11-13T15:11:19.497Z,9.72
2017-11-13T15:12:28.331Z,9.76
2017-11-13T15:13:37.166Z,9.68
2017-11-13T15:14:45.999Z,9.66
2017-11-13T15:15:54.834Z,9.66
2017-11-13T15:17:03.777Z,9.71
2017-11-13T15:18:12.631Z,9.65
2017-11-13T15:19:21.469Z,9.57